createdAt,value
2022-11-05T00:00:38.687Z,3.20
2022-11-05T00:03:23.989Z,3.30
2022-11-05T00:06:12.222Z,3.75
2022-11-05T00:08:59.474Z,3.15
2022-11-05T00:11:46.564Z,2.78
2022-11-05T00:14:32.817Z,3.03
2022-11-05T00:16:59.510Z,3.10
2022-11-05T00:19:26.190Z,3.30
2022-11-05T00:22:11.549Z,3.40
2022-11-05T00:24:56.820Z,2.97
2022-11-05T00:27:23.555Z,2.70
2022-11-05T00:29:50.347Z,3.05
2022-11-05T00:32:17.086Z,3.35
2022-11-05T00:34:43.765Z,4.20
2022-11-05T00:37:10.483Z,4.18
2022-11-05T00:39:37.198Z,4.28
2022-11-05T00:42:22.617Z,3.95
2022-11-05T00:45:01.327Z,4.30
2022-11-05T00:47:48.392Z,4.10
2022-11-05T00:50:15.540Z,4.18
2022-11-05T00:52:57.745Z,4.53
2022-11-05T00:55:40.398Z,4.80
2022-11-05T00:58:17.580Z,4.80
2022-11-05T01:00:51.482Z,4.40
2022-11-05T01:03:23.731Z,2.75
2022-11-05T01:08:26.737Z,3.65
2022-11-05T01:10:57.666Z,3.78
2022-11-05T01:13:30.465Z,3.10
2022-11-05T01:15:57.837Z,4.40
2022-11-05T01:18:25.325Z,4.65
2022-11-05T01:20:52.316Z,4.57
2022-11-05T01:23:19.439Z,5.38
2022-11-05T01:25:46.405Z,4.78
2022-11-05T01:28:13.194Z,4.78
2022-11-05T01:30:39.995Z,5.25
2022-11-05T01:33:07.737Z,5.13
2022-11-05T01:35:34.598Z,4.72
2022-11-05T01:38:01.378Z,5.30
2022-11-05T01:40:28.231Z,5.40
2022-11-05T01:42:54.936Z,4.35
2022-11-05T01:45:27.765Z,5.07
2022-11-05T01:48:23.880Z,5.03
2022-11-05T01:51:06.693Z,5.25
2022-11-05T01:53:54.567Z,6.30
2022-11-05T01:56:33.804Z,5.88
2022-11-05T01:59:15.588Z,7.03
2022-11-05T02:01:42.485Z,6.13
2022-11-05T02:04:16.530Z,6.28
2022-11-05T02:06:46.313Z,6.18
2022-11-05T02:09:33.337Z,6.40
2022-11-05T02:12:00.309Z,7.85
2022-11-05T02:14:27.079Z,6.90
2022-11-05T02:17:05.006Z,6.45
2022-11-05T02:19:57.447Z,6.88
2022-11-05T02:23:37.587Z,6.72
2022-11-05T02:26:29.601Z,5.88
2022-11-05T02:29:20.465Z,5.60
2022-11-05T02:31:54.869Z,5.88
2022-11-05T02:34:35.527Z,5.38
2022-11-05T02:37:19.488Z,6.60
2022-11-05T02:40:05.217Z,6.22
2022-11-05T02:43:15.337Z,7.15
2022-11-05T02:46:12.120Z,6.40
2022-11-05T02:48:52.990Z,6.95
2022-11-05T02:51:33.603Z,6.72
2022-11-05T02:54:24.524Z,5.95
2022-11-05T02:56:56.731Z,5.95
2022-11-05T02:59:23.504Z,6.85
2022-11-05T03:01:53.120Z,5.85
2022-11-05T03:04:23.673Z,5.75
2022-11-05T03:08:00.504Z,6.97
2022-11-05T03:10:43.140Z,6.10
2022-11-05T03:13:41.002Z,5.53
2022-11-05T03:19:09.150Z,6.65
2022-11-05T03:24:38.988Z,5.45
2022-11-05T03:27:26.350Z,6.35
2022-11-05T03:30:05.488Z,6.22
2022-11-05T03:32:38.761Z,6.80
2022-11-05T03:35:15.238Z,7.05
2022-11-05T03:37:47.233Z,5.70
2022-11-05T03:40:19.445Z,7.47
2022-11-05T03:42:52.070Z,7.10
2022-11-05T03:45:28.005Z,6.82
2022-11-05T03:48:00.498Z,6.97
2022-11-05T03:50:53.270Z,6.90
2022-11-05T03:53:30.028Z,7.00
2022-11-05T03:56:10.217Z,6.13
2022-11-05T03:58:43.340Z,7.45
2022-11-05T04:01:10.857Z,6.93
2022-11-05T04:03:37.906Z,6.80
2022-11-05T04:06:26.881Z,6.82
2022-11-05T04:09:12.524Z,7.35
2022-11-05T04:11:58.305Z,7.57
2022-11-05T04:14:26.271Z,7.35
2022-11-05T04:17:09.575Z,7.65
2022-11-05T04:20:03.868Z,6.10
2022-11-05T04:22:53.145Z,7.65
2022-11-05T04:25:21.638Z,7.18
2022-11-05T04:27:48.942Z,7.90
2022-11-05T04:30:18.684Z,7.68
2022-11-05T04:33:11.138Z,8.50
2022-11-05T04:35:45.081Z,7.95
2022-11-05T04:38:16.165Z,7.55
2022-11-05T04:40:44.539Z,9.07
2022-11-05T04:43:18.560Z,8.50
2022-11-05T04:45:46.591Z,9.00
2022-11-05T04:48:13.621Z,9.13
2022-11-05T04:50:40.353Z,7.88
2022-11-05T04:53:07.067Z,9.20
2022-11-05T04:55:33.776Z,9.57
2022-11-05T04:58:00.532Z,9.23
2022-11-05T05:00:27.358Z,9.05
2022-11-05T05:02:54.278Z,10.82
2022-11-05T05:05:22.769Z,7.32
2022-11-05T05:07:49.525Z,9.52
2022-11-05T05:10:16.557Z,9.50
2022-11-05T05:12:43.323Z,10.15
2022-11-05T05:15:10.318Z,10.38
2022-11-05T05:17:37.126Z,11.82
2022-11-05T05:20:22.803Z,10.82
2022-11-05T05:22:55.960Z,12.30
2022-11-05T05:25:23.221Z,10.32
2022-11-05T05:27:50.034Z,10.18
2022-11-05T05:30:17.015Z,11.30
2022-11-05T05:32:44.021Z,10.75
2022-11-05T05:35:10.844Z,11.40
2022-11-05T05:37:37.618Z,10.10
2022-11-05T05:40:04.767Z,10.27
2022-11-05T05:42:31.548Z,11.93
2022-11-05T05:44:58.243Z,11.07
2022-11-05T05:47:24.965Z,11.63
2022-11-05T05:49:51.822Z,12.25
2022-11-05T05:52:18.932Z,11.70
2022-11-05T05:54:45.620Z,12.35
2022-11-05T05:57:12.535Z,11.73
2022-11-05T05:59:39.243Z,12.52
2022-11-05T06:02:06.035Z,12.43
2022-11-05T06:04:32.853Z,12.27
2022-11-05T06:06:59.535Z,13.05
2022-11-05T06:09:26.250Z,11.93
2022-11-05T06:11:53.012Z,12.93
2022-11-05T06:14:19.726Z,11.68
2022-11-05T06:16:46.486Z,13.02
2022-11-05T06:19:13.215Z,10.93
2022-11-05T06:21:39.954Z,12.60
2022-11-05T06:24:07.278Z,12.65
2022-11-05T06:26:33.984Z,12.50
2022-11-05T06:29:00.694Z,13.15
2022-11-05T06:31:27.383Z,11.82
2022-11-05T06:33:54.208Z,13.02
2022-11-05T06:36:21.296Z,13.27
2022-11-05T06:38:48.085Z,12.57
2022-11-05T06:41:15.141Z,12.18
2022-11-05T06:43:42.381Z,13.73
2022-11-05T06:46:11.263Z,13.68
2022-11-05T06:48:38.607Z,12.90
2022-11-05T06:51:07.484Z,13.18
2022-11-05T06:53:36.215Z,9.00
2022-11-05T06:56:07.663Z,13.60
2022-11-05T06:58:35.137Z,12.95
2022-11-05T07:01:08.890Z,11.90
2022-11-05T07:03:39.507Z,12.38
2022-11-05T07:06:07.917Z,13.68
2022-11-05T07:08:37.342Z,14.25
2022-11-05T07:11:04.951Z,13.73
2022-11-05T07:13:32.084Z,14.23
2022-11-05T07:15:58.899Z,12.52
2022-11-05T07:18:25.605Z,12.63
2022-11-05T07:20:52.374Z,8.13
2022-11-05T07:23:19.234Z,12.55
2022-11-05T07:25:46.405Z,10.25
2022-11-05T07:28:14.424Z,13.55
2022-11-05T07:30:41.468Z,11.45
2022-11-05T07:33:09.136Z,11.85
2022-11-05T07:35:36.246Z,10.27
2022-11-05T07:38:03.423Z,11.50
2022-11-05T07:40:30.507Z,9.00
2022-11-05T07:43:00.783Z,11.93
2022-11-05T07:45:30.572Z,12.68
2022-11-05T07:48:04.101Z,10.35
2022-11-05T07:50:36.778Z,12.05
2022-11-05T07:53:11.950Z,12.13
2022-11-05T07:55:41.995Z,11.02
2022-11-05T07:58:11.668Z,7.63
2022-11-05T08:00:38.624Z,7.95
2022-11-05T08:03:12.195Z,8.65
2022-11-05T08:05:44.585Z,9.70
2022-11-05T08:08:14.791Z,9.10
2022-11-05T08:10:42.599Z,11.85
2022-11-05T08:13:10.453Z,8.23
2022-11-05T08:15:37.775Z,6.32
2022-11-05T08:18:08.075Z,7.65
2022-11-05T08:20:36.413Z,9.10
2022-11-05T08:23:03.158Z,9.88
2022-11-05T08:25:31.452Z,9.18
2022-11-05T08:28:01.605Z,8.35
2022-11-05T08:30:29.321Z,10.05
2022-11-05T08:33:05.774Z,9.45
2022-11-05T08:35:35.548Z,8.52
2022-11-05T08:38:05.864Z,9.27
2022-11-05T08:40:35.969Z,9.43
2022-11-05T08:43:06.666Z,7.53
2022-11-05T08:45:34.758Z,8.63
2022-11-05T08:48:16.904Z,8.63
2022-11-05T08:50:47.217Z,8.02
2022-11-05T08:53:15.453Z,7.93
2022-11-05T08:55:43.933Z,9.02
2022-11-05T08:58:17.720Z,8.35
2022-11-05T09:00:48.894Z,9.45
2022-11-05T09:03:16.247Z,7.32
2022-11-05T09:05:43.678Z,8.73
2022-11-05T09:08:18.503Z,8.00
2022-11-05T09:10:47.181Z,7.68
2022-11-05T09:13:18.940Z,8.65
2022-11-05T09:15:49.264Z,8.55
2022-11-05T09:18:18.649Z,9.02
2022-11-05T09:20:46.405Z,8.52
2022-11-05T09:23:16.917Z,8.40
2022-11-05T09:25:44.698Z,7.95
2022-11-05T09:28:21.413Z,7.88
2022-11-05T09:30:51.689Z,10.07
2022-11-05T09:33:24.701Z,8.15
2022-11-05T09:35:53.476Z,7.55
2022-11-05T09:38:20.300Z,8.10
2022-11-05T09:40:59.410Z,8.02
2022-11-05T09:43:42.390Z,7.80
2022-11-05T09:46:20.155Z,8.13
2022-11-05T09:48:55.277Z,7.25
2022-11-05T09:51:24.346Z,8.27
2022-11-05T09:53:53.458Z,7.88
2022-11-05T09:56:30.782Z,7.55
2022-11-05T09:59:22.549Z,7.40
2022-11-05T10:01:52.355Z,7.28
2022-11-05T10:04:26.127Z,7.57
2022-11-05T10:07:00.613Z,5.85
2022-11-05T10:09:45.208Z,6.57
2022-11-05T10:12:44.849Z,6.70
2022-11-05T10:15:17.119Z,6.20
2022-11-05T10:17:55.462Z,5.63
2022-11-05T10:20:38.627Z,5.88
2022-11-05T10:23:16.156Z,6.05
2022-11-05T10:25:50.857Z,6.32
2022-11-05T10:28:23.393Z,6.00
2022-11-05T10:31:00.241Z,7.13
2022-11-05T10:33:45.126Z,6.70
2022-11-05T10:36:34.952Z,7.30
2022-11-05T10:39:15.676Z,6.28
2022-11-05T10:42:10.224Z,4.78
2022-11-05T10:44:51.622Z,6.45
2022-11-05T10:47:57.971Z,6.25
2022-11-05T10:50:29.442Z,6.13
2022-11-05T10:53:06.772Z,6.18
2022-11-05T10:55:40.568Z,6.03
2022-11-05T10:58:17.934Z,6.07
2022-11-05T11:01:10.768Z,5.18
2022-11-05T11:03:48.207Z,4.97
2022-11-05T11:06:32.054Z,5.68
2022-11-05T11:09:03.786Z,4.10
2022-11-05T11:11:36.878Z,5.70
2022-11-05T11:14:22.248Z,6.00
2022-11-05T11:16:51.692Z,5.25
2022-11-05T11:19:21.501Z,5.18
2022-11-05T11:22:09.205Z,5.50
2022-11-05T11:24:54.047Z,4.30
2022-11-05T11:27:34.312Z,4.88
2022-11-05T11:30:05.311Z,5.65
2022-11-05T11:32:40.211Z,6.22
2022-11-05T11:35:21.600Z,5.85
2022-11-05T11:37:52.081Z,4.90
2022-11-05T11:40:36.147Z,6.10
2022-11-05T11:43:23.245Z,5.90
2022-11-05T11:45:56.517Z,6.10
2022-11-05T11:48:30.268Z,4.20
2022-11-05T11:50:58.921Z,5.75
2022-11-05T11:53:35.919Z,5.78
2022-11-05T11:56:21.307Z,5.47
2022-11-05T11:58:50.817Z,6.03
2022-11-05T12:01:42.314Z,5.63
2022-11-05T12:04:26.481Z,5.88
2022-11-05T12:07:11.315Z,5.53
2022-11-05T12:10:20.308Z,6.60
2022-11-05T12:13:21.031Z,5.30
2022-11-05T12:16:22.213Z,4.90
2022-11-05T12:19:38.857Z,5.40
2022-11-05T12:22:24.474Z,5.50
2022-11-05T12:25:12.582Z,6.05
2022-11-05T12:27:58.092Z,6.00
2022-11-05T12:30:47.898Z,5.85
2022-11-05T12:33:46.778Z,5.30
2022-11-05T12:36:50.760Z,5.45
2022-11-05T12:39:56.682Z,5.57
2022-11-05T12:42:44.699Z,4.55
2022-11-05T12:45:20.167Z,4.70
2022-11-05T12:48:03.408Z,4.38
2022-11-05T12:50:48.809Z,4.18
2022-11-05T12:53:45.682Z,3.97
2022-11-05T12:56:53.165Z,3.80
2022-11-05T12:59:40.033Z,3.70
2022-11-05T13:02:19.252Z,3.90
2022-11-05T13:05:16.045Z,3.80
2022-11-05T13:07:55.182Z,4.55
2022-11-05T13:10:43.534Z,3.63
2022-11-05T13:13:31.140Z,3.42
2022-11-05T13:16:10.357Z,4.10
2022-11-05T13:18:50.370Z,2.80
2022-11-05T13:21:23.289Z,3.75
2022-11-05T13:24:01.486Z,3.47
2022-11-05T13:26:42.708Z,4.00
2022-11-05T13:29:31.940Z,3.00
2022-11-05T13:32:31.636Z,4.00
2022-11-05T13:35:07.127Z,3.78
2022-11-05T13:38:03.681Z,3.70
2022-11-05T13:41:07.952Z,4.25
2022-11-05T13:44:21.216Z,4.00
2022-11-05T13:47:25.150Z,3.83
2022-11-05T13:50:29.054Z,3.88
2022-11-05T13:52:55.863Z,4.15
2022-11-05T13:55:37.704Z,4.43
2022-11-05T13:58:35.246Z,4.97
2022-11-05T14:01:47.888Z,4.25
2022-11-05T14:04:34.450Z,4.28
2022-11-05T14:07:21.197Z,4.22
2022-11-05T14:09:59.663Z,4.13
2022-11-05T14:15:17.547Z,4.10
2022-11-05T14:18:26.407Z,5.10
2022-11-05T14:21:05.333Z,3.70
2022-11-05T14:23:49.733Z,3.78
2022-11-05T14:26:21.660Z,3.85
2022-11-05T14:29:03.827Z,3.90
2022-11-05T14:32:08.660Z,3.53
2022-11-05T14:34:54.831Z,3.63
2022-11-05T14:37:30.576Z,4.15
2022-11-05T14:40:20.065Z,3.55
2022-11-05T14:42:55.121Z,3.03
2022-11-05T14:45:36.551Z,3.58
2022-11-05T14:48:23.652Z,3.58
2022-11-05T14:50:51.447Z,3.80
2022-11-05T14:53:38.320Z,3.67
2022-11-05T14:56:11.675Z,3.65
2022-11-05T14:58:40.957Z,3.60
2022-11-05T15:01:14.536Z,3.75
2022-11-05T15:03:45.769Z,3.70
2022-11-05T15:06:35.208Z,3.03
2022-11-05T15:09:29.094Z,3.78
2022-11-05T15:11:55.726Z,3.35
2022-11-05T15:14:55.880Z,3.85
2022-11-05T15:17:42.811Z,2.63
2022-11-05T15:20:18.727Z,4.90
2022-11-05T15:22:52.535Z,3.75
2022-11-05T15:25:52.912Z,4.05
2022-11-05T15:28:43.844Z,4.82
2022-11-05T15:31:13.558Z,3.95
2022-11-05T15:33:49.714Z,4.47
2022-11-05T15:36:30.537Z,3.38
2022-11-05T15:41:47.060Z,3.35
2022-11-05T15:44:39.530Z,3.60
2022-11-05T15:47:25.439Z,3.55
2022-11-05T15:49:57.049Z,3.85
2022-11-05T15:52:36.309Z,3.60
2022-11-05T15:55:20.685Z,3.30
2022-11-05T15:58:06.811Z,3.78
2022-11-05T16:00:36.756Z,3.58
2022-11-05T16:03:33.435Z,4.40
2022-11-05T16:06:01.881Z,4.60
2022-11-05T16:08:30.662Z,4.68
2022-11-05T16:11:00.811Z,4.43
2022-11-05T16:13:41.765Z,4.25
2022-11-05T16:16:14.457Z,3.85
2022-11-05T16:18:43.556Z,3.50
2022-11-05T16:21:22.673Z,3.67
2022-11-05T16:23:49.347Z,4.50
2022-11-05T16:27:00.410Z,5.18
2022-11-05T16:29:35.485Z,4.30
2022-11-05T16:32:13.519Z,3.97
2022-11-05T16:34:50.289Z,4.68
2022-11-05T16:37:21.201Z,4.40
2022-11-05T16:39:48.460Z,4.63
2022-11-05T16:42:24.395Z,4.05
2022-11-05T16:44:53.564Z,4.80
2022-11-05T16:47:21.551Z,4.47
2022-11-05T16:49:49.042Z,4.18
2022-11-05T16:52:16.318Z,4.65
2022-11-05T16:54:43.597Z,4.43
2022-11-05T16:57:25.635Z,4.97
2022-11-05T16:59:54.563Z,3.80
2022-11-05T17:02:21.728Z,4.47
2022-11-05T17:04:49.110Z,4.18
2022-11-05T17:07:15.819Z,5.72
2022-11-05T17:09:42.647Z,4.53
2022-11-05T17:12:11.487Z,4.78
2022-11-05T17:14:38.736Z,3.95
2022-11-05T17:17:06.515Z,5.43
2022-11-05T17:19:33.467Z,3.38
2022-11-05T17:22:00.225Z,4.68
2022-11-05T17:24:27.017Z,4.40
2022-11-05T17:26:53.758Z,6.38
2022-11-05T17:29:20.489Z,4.65
2022-11-05T17:31:47.259Z,6.25
2022-11-05T17:34:13.956Z,5.40
2022-11-05T17:36:40.635Z,3.45
2022-11-05T17:39:07.478Z,5.28
2022-11-05T17:41:34.181Z,5.22
2022-11-05T17:44:00.958Z,4.90
2022-11-05T17:46:27.753Z,4.05
2022-11-05T17:48:54.454Z,4.75
2022-11-05T17:51:21.691Z,4.05
2022-11-05T17:53:49.340Z,4.30
2022-11-05T17:56:30.570Z,3.90
2022-11-05T17:59:00.950Z,4.07
2022-11-05T18:01:34.674Z,3.80
2022-11-05T18:04:08.353Z,4.00
2022-11-05T18:06:41.020Z,4.13
2022-11-05T18:09:10.486Z,4.53
2022-11-05T18:11:38.703Z,4.45
2022-11-05T18:14:06.384Z,6.90
2022-11-05T18:16:33.773Z,3.30
2022-11-05T18:19:00.794Z,5.60
2022-11-05T18:21:27.903Z,4.28
2022-11-05T18:23:54.664Z,4.30
2022-11-05T18:26:21.601Z,3.78
2022-11-05T18:28:48.299Z,4.93
2022-11-05T18:31:20.814Z,4.68
2022-11-05T18:33:49.729Z,4.82
2022-11-05T18:36:21.478Z,3.88
2022-11-05T18:38:49.066Z,5.40
2022-11-05T18:41:16.449Z,4.45
2022-11-05T18:43:43.530Z,3.67
2022-11-05T18:46:29.350Z,4.32
2022-11-05T18:48:59.519Z,4.47
2022-11-05T18:51:27.185Z,5.00
2022-11-05T18:53:54.848Z,4.75
2022-11-05T18:56:21.929Z,4.78
2022-11-05T18:58:49.813Z,4.88
2022-11-05T19:01:24.524Z,4.80
2022-11-05T19:03:54.453Z,4.32
2022-11-05T19:06:21.832Z,4.32
2022-11-05T19:08:49.090Z,5.40
2022-11-05T19:11:20.420Z,6.05
2022-11-05T19:13:48.329Z,4.22
2022-11-05T19:16:22.854Z,6.10
2022-11-05T19:18:50.538Z,5.97
2022-11-05T19:21:25.358Z,5.25
2022-11-05T19:23:53.486Z,6.13
2022-11-05T19:26:28.356Z,5.38
2022-11-05T19:28:59.445Z,6.00
2022-11-05T19:31:27.650Z,5.50
2022-11-05T19:33:55.450Z,5.00
2022-11-05T19:36:24.691Z,7.78
2022-11-05T19:39:02.049Z,6.63
2022-11-05T19:41:29.355Z,5.07
2022-11-05T19:43:58.067Z,5.95
2022-11-05T19:46:25.587Z,6.13
2022-11-05T19:48:53.303Z,5.10
2022-11-05T19:51:26.688Z,5.65
2022-11-05T19:53:55.707Z,6.80
2022-11-05T19:56:29.773Z,6.75
2022-11-05T19:58:58.380Z,7.38
2022-11-05T20:01:27.945Z,5.82
2022-11-05T20:03:57.039Z,7.05
2022-11-05T20:06:30.772Z,7.10
2022-11-05T20:11:49.912Z,6.38
2022-11-05T20:14:17.013Z,7.60
2022-11-05T20:16:45.679Z,5.90
2022-11-05T20:19:19.395Z,6.60
2022-11-05T20:21:47.179Z,6.90
2022-11-05T20:24:22.345Z,5.55
2022-11-05T20:26:50.287Z,6.82
2022-11-05T20:29:17.356Z,5.40
2022-11-05T20:31:44.040Z,5.82
2022-11-05T20:34:10.828Z,6.47
2022-11-05T20:36:39.543Z,6.82
2022-11-05T20:39:06.586Z,6.82
2022-11-05T20:41:33.329Z,7.13
2022-11-05T20:44:00.108Z,7.00
2022-11-05T20:46:27.315Z,7.68
2022-11-05T20:48:55.007Z,7.80
2022-11-05T20:51:24.356Z,5.95
2022-11-05T20:53:56.664Z,6.80
2022-11-05T20:56:29.526Z,7.32
2022-11-05T20:58:59.109Z,7.05
2022-11-05T21:01:29.630Z,6.65
2022-11-05T21:03:57.300Z,6.03
2022-11-05T21:06:24.095Z,6.88
2022-11-05T21:08:52.515Z,6.55
2022-11-05T21:11:20.275Z,5.68
2022-11-05T21:13:47.803Z,6.05
2022-11-05T21:16:18.588Z,5.57
2022-11-05T21:18:47.407Z,6.53
2022-11-05T21:21:19.289Z,5.75
2022-11-05T21:23:46.536Z,6.47
2022-11-05T21:26:15.281Z,5.43
2022-11-05T21:28:42.292Z,6.00
2022-11-05T21:31:10.392Z,6.43
2022-11-05T21:33:38.231Z,6.93
2022-11-05T21:36:09.158Z,5.57
2022-11-05T21:38:36.044Z,5.70
2022-11-05T21:41:04.691Z,5.65
2022-11-05T21:43:31.713Z,5.90
2022-11-05T21:46:02.431Z,6.60
2022-11-05T21:48:30.251Z,5.80
2022-11-05T21:51:15.828Z,5.57
2022-11-05T21:54:01.404Z,5.68
2022-11-05T21:56:47.376Z,4.97
2022-11-05T21:59:40.123Z,6.00
2022-11-05T22:02:09.883Z,5.28
2022-11-05T22:04:43.914Z,5.30
2022-11-05T22:07:15.048Z,5.85
2022-11-05T22:09:41.812Z,5.50
2022-11-05T22:12:09.622Z,5.13
2022-11-05T22:14:37.306Z,6.40
2022-11-05T22:17:05.320Z,5.22
2022-11-05T22:19:32.922Z,4.93
2022-11-05T22:21:59.672Z,6.22
2022-11-05T22:24:31.877Z,6.35
2022-11-05T22:29:33.961Z,5.45
2022-11-05T22:32:00.809Z,5.40
2022-11-05T22:34:27.616Z,5.43
2022-11-05T22:36:54.807Z,5.68
2022-11-05T22:39:21.965Z,4.93
2022-11-05T22:41:49.214Z,5.47
2022-11-05T22:44:17.221Z,5.45
2022-11-05T22:46:44.335Z,4.20
2022-11-05T22:49:11.847Z,5.82
2022-11-05T22:51:40.038Z,4.75
2022-11-05T22:54:07.704Z,5.00
2022-11-05T22:56:39.109Z,5.93
2022-11-05T22:59:08.778Z,6.20
2022-11-05T23:01:35.866Z,6.10
2022-11-05T23:04:02.690Z,5.10
2022-11-05T23:06:51.350Z,5.70
2022-11-05T23:09:49.462Z,6.13
2022-11-05T23:12:27.063Z,6.50
2022-11-05T23:14:56.190Z,6.25
2022-11-05T23:17:41.852Z,4.40
2022-11-05T23:20:38.914Z,5.75
2022-11-05T23:23:35.931Z,4.28
2022-11-05T23:26:22.640Z,5.60
2022-11-05T23:28:49.325Z,4.13
2022-11-05T23:31:34.571Z,5.70
2022-11-05T23:34:01.350Z,4.97
2022-11-05T23:36:46.474Z,5.47
2022-11-05T23:39:13.146Z,4.03
2022-11-05T23:41:58.668Z,4.45
2022-11-05T23:44:43.728Z,5.05
2022-11-05T23:47:29.015Z,3.83
2022-11-05T23:49:55.730Z,4.75
2022-11-05T23:52:22.434Z,5.32
2022-11-05T23:54:49.121Z,4.47
2022-11-05T23:57:15.833Z,5.15
2022-11-05T23:59:42.543Z,3.50
